createdAt,value
2018-02-22T00:00:25.198Z,-0.90
2018-02-22T00:02:51.352Z,-0.90
2018-02-22T00:05:17.574Z,-1.00
2018-02-22T00:07:43.752Z,-1.00
2018-02-22T00:10:10.657Z,-1.00
2018-02-22T00:12:36.800Z,-1.00
2018-02-22T00:15:03.739Z,-1.10
2018-02-22T00:17:29.895Z,-1.10
2018-02-22T00:19:56.768Z,-1.00
2018-02-22T00:22:22.922Z,-1.00
2018-02-22T00:24:49.103Z,-1.00
2018-02-22T00:27:15.265Z,-1.00
2018-02-22T00:29:41.440Z,-1.00
2018-02-22T00:32:08.338Z,-0.90
2018-02-22T00:34:34.531Z,-0.90
2018-02-22T00:37:01.495Z,-0.90
2018-02-22T00:39:27.702Z,-0.90
2018-02-22T00:41:53.905Z,-0.90
2018-02-22T00:44:20.819Z,-1.20
2018-02-22T00:46:46.999Z,-1.20
2018-02-22T00:49:13.214Z,-1.20
2018-02-22T00:51:40.174Z,-1.10
2018-02-22T00:54:06.451Z,-1.10
2018-02-22T00:56:32.643Z,-1.00
2018-02-22T00:58:58.810Z,-1.10
2018-02-22T01:01:24.973Z,-1.10
2018-02-22T01:03:51.888Z,-1.10
2018-02-22T01:06:18.914Z,-1.00
2018-02-22T01:08:45.245Z,-1.00
2018-02-22T01:11:11.472Z,-1.20
2018-02-22T01:13:37.650Z,-1.10
2018-02-22T01:16:04.587Z,-1.20
2018-02-22T01:18:31.446Z,-1.20
2018-02-22T01:20:58.373Z,-1.20
2018-02-22T01:23:24.539Z,-1.30
2018-02-22T01:25:50.729Z,-1.10
2018-02-22T01:28:17.640Z,-1.30
2018-02-22T01:30:43.835Z,-1.30
2018-02-22T01:33:09.956Z,-1.30
2018-02-22T01:35:36.095Z,-1.40
2018-02-22T01:38:02.280Z,-1.30
2018-02-22T01:40:29.191Z,-1.40
2018-02-22T01:42:55.360Z,-1.40
2018-02-22T01:45:22.245Z,-1.40
2018-02-22T01:47:48.407Z,-1.40
2018-02-22T01:50:14.589Z,-1.40
2018-02-22T01:52:40.758Z,-1.40
2018-02-22T01:55:06.952Z,-1.40
2018-02-22T01:57:33.118Z,-1.40
2018-02-22T02:00:00.006Z,-1.40
2018-02-22T02:02:26.188Z,-1.40
2018-02-22T02:04:53.134Z,-1.50
2018-02-22T02:07:20.090Z,-1.40
2018-02-22T02:09:47.027Z,-1.50
2018-02-22T02:12:13.992Z,-1.50
2018-02-22T02:14:40.889Z,-1.60
2018-02-22T02:17:14.120Z,-1.60
2018-02-22T02:19:41.079Z,-1.60
2018-02-22T02:22:07.297Z,-1.60
2018-02-22T02:24:34.208Z,-1.70
2018-02-22T02:27:00.402Z,-1.70
2018-02-22T02:29:26.522Z,-1.60
2018-02-22T02:31:52.660Z,-1.60
2018-02-22T02:34:18.858Z,-1.60
2018-02-22T02:36:45.770Z,-1.80
2018-02-22T02:39:12.746Z,-1.70
2018-02-22T02:41:38.963Z,-1.70
2018-02-22T02:44:05.864Z,-1.70
2018-02-22T02:46:32.014Z,-1.70
2018-02-22T02:48:58.209Z,-1.70
2018-02-22T02:51:24.477Z,-1.70
2018-02-22T02:53:51.408Z,-1.80
2018-02-22T02:56:17.544Z,-1.80
2018-02-22T02:58:44.422Z,-1.90
2018-02-22T03:01:10.610Z,-1.90
2018-02-22T03:03:36.819Z,-1.90
2018-02-22T03:06:03.032Z,-1.90
2018-02-22T03:08:29.206Z,-2.10
2018-02-22T03:10:56.087Z,-1.90
2018-02-22T03:13:22.304Z,-1.90
2018-02-22T03:15:48.486Z,-1.90
2018-02-22T03:18:14.654Z,-1.90
2018-02-22T03:20:40.810Z,-2.00
2018-02-22T03:23:06.988Z,-2.00
2018-02-22T03:25:33.214Z,-1.90
2018-02-22T03:28:00.141Z,-2.10
2018-02-22T03:30:26.377Z,-2.10
2018-02-22T03:32:52.600Z,-1.90
2018-02-22T03:35:18.778Z,-1.80
2018-02-22T03:37:44.966Z,-1.90
2018-02-22T03:40:11.148Z,-2.00
2018-02-22T03:42:37.303Z,-2.00
2018-02-22T03:45:03.450Z,-2.00
2018-02-22T03:47:29.679Z,-2.00
2018-02-22T03:49:56.671Z,-2.10
2018-02-22T03:52:22.900Z,-2.10
2018-02-22T03:54:49.104Z,-2.20
2018-02-22T03:57:15.285Z,-2.10
2018-02-22T03:59:41.466Z,-2.10
2018-02-22T04:02:07.631Z,-2.10
2018-02-22T04:04:33.826Z,-2.00
2018-02-22T04:07:00.021Z,-2.00
2018-02-22T04:09:26.906Z,-2.00
2018-02-22T04:11:53.126Z,-2.00
2018-02-22T04:14:19.327Z,-2.00
2018-02-22T04:16:46.337Z,-2.10
2018-02-22T04:19:12.480Z,-2.10
2018-02-22T04:21:38.671Z,-2.20
2018-02-22T04:24:04.903Z,-2.20
2018-02-22T04:26:31.092Z,-2.20
2018-02-22T04:28:58.110Z,-2.20
2018-02-22T04:31:24.266Z,-2.20
2018-02-22T04:33:50.464Z,-2.20
2018-02-22T04:36:17.359Z,-2.10
2018-02-22T04:38:43.575Z,-2.20
2018-02-22T04:41:09.799Z,-2.00
2018-02-22T04:43:35.917Z,-2.10
2018-02-22T04:46:02.840Z,-2.20
2018-02-22T04:48:29.748Z,-2.10
2018-02-22T04:50:55.907Z,-2.10
2018-02-22T04:53:22.844Z,-2.20
2018-02-22T04:55:49.045Z,-2.30
2018-02-22T04:58:15.232Z,-2.20
2018-02-22T05:00:42.188Z,-2.30
2018-02-22T05:03:08.388Z,-2.30
2018-02-22T05:05:35.278Z,-2.30
2018-02-22T05:08:01.449Z,-2.30
2018-02-22T05:10:27.679Z,-2.30
2018-02-22T05:12:54.660Z,-2.30
2018-02-22T05:18:06.826Z,-2.20
2018-02-22T05:20:33.051Z,-2.30
2018-02-22T05:22:59.229Z,-2.40
2018-02-22T05:25:25.459Z,-2.30
2018-02-22T05:27:51.631Z,-2.20
2018-02-22T05:30:17.779Z,-2.20
2018-02-22T05:32:43.993Z,-2.30
2018-02-22T05:35:10.250Z,-2.30
2018-02-22T05:37:37.153Z,-2.30
2018-02-22T05:40:03.366Z,-2.30
2018-02-22T05:42:29.644Z,-2.40
2018-02-22T05:44:55.787Z,-2.30
2018-02-22T05:47:22.714Z,-2.50
2018-02-22T05:49:49.623Z,-2.30
2018-02-22T05:52:15.813Z,-2.40
2018-02-22T05:54:41.947Z,-2.30
2018-02-22T05:57:08.102Z,-2.30
2018-02-22T05:59:34.351Z,-2.40
2018-02-22T06:02:00.543Z,-2.40
2018-02-22T06:04:26.785Z,-2.30
2018-02-22T06:06:52.991Z,-2.30
2018-02-22T06:09:19.144Z,-2.40
2018-02-22T06:11:45.351Z,-2.30
2018-02-22T06:14:11.574Z,-2.30
2018-02-22T06:16:37.798Z,-2.30
2018-02-22T06:19:03.976Z,-2.40
2018-02-22T06:21:30.870Z,-2.50
2018-02-22T06:23:57.001Z,-2.50
2018-02-22T06:26:30.123Z,-2.40
2018-02-22T06:28:56.312Z,-2.40
2018-02-22T06:31:22.475Z,-2.40
2018-02-22T06:33:48.654Z,-2.40
2018-02-22T06:36:14.875Z,-2.40
2018-02-22T06:38:41.053Z,-2.40
2018-02-22T06:41:07.284Z,-2.40
2018-02-22T06:43:33.451Z,-2.40
2018-02-22T06:46:00.314Z,-2.30
2018-02-22T06:48:26.581Z,-2.30
2018-02-22T06:50:52.763Z,-2.40
2018-02-22T06:53:18.951Z,-2.20
2018-02-22T06:55:45.158Z,-2.20
2018-02-22T06:58:11.316Z,-2.10
2018-02-22T07:00:37.492Z,-2.20
2018-02-22T07:03:03.674Z,-2.20
2018-02-22T07:05:30.578Z,-2.10
2018-02-22T07:07:56.849Z,-2.10
2018-02-22T07:10:23.748Z,-1.90
2018-02-22T07:12:49.921Z,-1.90
2018-02-22T07:15:16.832Z,-1.60
2018-02-22T07:17:43.031Z,-1.60
2018-02-22T07:20:09.209Z,-1.70
2018-02-22T07:22:35.365Z,-1.60
2018-02-22T07:25:02.244Z,-1.50
2018-02-22T07:27:28.435Z,-1.50
2018-02-22T07:29:54.652Z,-1.40
2018-02-22T07:32:21.623Z,-1.40
2018-02-22T07:34:47.772Z,-1.40
2018-02-22T07:37:13.974Z,-1.20
2018-02-22T07:39:40.140Z,-1.40
2018-02-22T07:42:06.395Z,-1.50
2018-02-22T07:44:33.417Z,-1.60
2018-02-22T07:46:59.658Z,-1.60
2018-02-22T07:49:26.615Z,-1.30
2018-02-22T07:51:53.588Z,-1.30
2018-02-22T07:54:19.765Z,-1.30
2018-02-22T07:56:45.953Z,-1.20
2018-02-22T07:59:12.180Z,-1.20
2018-02-22T08:01:38.464Z,-1.10
2018-02-22T08:04:04.693Z,-1.30
2018-02-22T08:06:30.877Z,-1.10
2018-02-22T08:08:57.082Z,-1.00
2018-02-22T08:11:23.326Z,-0.90
2018-02-22T08:13:49.528Z,-0.70
2018-02-22T08:16:16.467Z,1.60
2018-02-22T08:18:43.400Z,2.00
2018-02-22T08:21:10.363Z,0.60
2018-02-22T08:23:37.284Z,0.30
2018-02-22T08:26:03.467Z,0.20
2018-02-22T08:28:29.676Z,0.10
2018-02-22T08:30:55.882Z,-0.20
2018-02-22T08:33:22.796Z,-0.50
2018-02-22T08:35:49.024Z,-0.50
2018-02-22T08:38:15.239Z,-0.10
2018-02-22T08:40:41.411Z,0.10
2018-02-22T08:43:08.348Z,0.20
2018-02-22T08:45:35.277Z,-0.10
2018-02-22T08:48:01.446Z,-0.10
2018-02-22T08:50:27.612Z,0.20
2018-02-22T08:52:53.755Z,0.40
2018-02-22T08:55:19.879Z,0.30
2018-02-22T08:57:46.102Z,0.20
2018-02-22T09:00:12.310Z,0.40
2018-02-22T09:02:38.453Z,0.60
2018-02-22T09:05:04.659Z,0.80
2018-02-22T09:07:30.812Z,1.10
2018-02-22T09:09:57.048Z,0.80
2018-02-22T09:12:23.227Z,1.10
2018-02-22T09:14:49.410Z,1.10
2018-02-22T09:17:15.576Z,0.70
2018-02-22T09:19:41.755Z,1.10
2018-02-22T09:22:07.978Z,1.30
2018-02-22T09:24:34.219Z,1.30
2018-02-22T09:27:00.372Z,1.40
2018-02-22T09:29:27.284Z,1.40
2018-02-22T09:31:53.510Z,1.40
2018-02-22T09:34:19.636Z,1.50
2018-02-22T09:36:45.750Z,1.30
2018-02-22T09:39:11.968Z,1.30
2018-02-22T09:41:38.089Z,1.10
2018-02-22T09:44:04.512Z,1.70
2018-02-22T09:46:30.668Z,1.70
2018-02-22T09:48:56.876Z,2.00
2018-02-22T09:51:23.076Z,2.10
2018-02-22T09:53:49.277Z,1.90
2018-02-22T09:56:16.288Z,1.90
2018-02-22T09:58:42.491Z,1.90
2018-02-22T10:01:08.682Z,2.70
2018-02-22T10:03:35.585Z,2.20
2018-02-22T10:06:01.709Z,2.20
2018-02-22T10:08:27.976Z,2.40
2018-02-22T10:10:54.977Z,1.80
2018-02-22T10:13:21.133Z,1.80
2018-02-22T10:15:48.105Z,1.80
2018-02-22T10:18:15.127Z,1.70
2018-02-22T10:20:41.309Z,1.70
2018-02-22T10:23:07.493Z,2.20
2018-02-22T10:25:34.433Z,3.00
2018-02-22T10:28:00.826Z,3.00
2018-02-22T10:30:27.048Z,3.40
2018-02-22T10:32:53.240Z,3.40
2018-02-22T10:35:20.164Z,4.10
2018-02-22T10:37:47.068Z,3.30
2018-02-22T10:40:13.205Z,3.20
2018-02-22T10:42:39.450Z,3.20
2018-02-22T10:45:05.667Z,3.70
2018-02-22T10:47:31.819Z,3.90
2018-02-22T10:49:58.074Z,4.30
2018-02-22T10:52:24.217Z,3.60
2018-02-22T10:54:50.494Z,3.20
2018-02-22T10:57:16.651Z,4.00
2018-02-22T10:59:43.594Z,4.90
2018-02-22T11:05:18.386Z,5.10
2018-02-22T11:07:44.567Z,5.10
2018-02-22T11:10:10.718Z,4.70
2018-02-22T11:12:36.899Z,4.90
2018-02-22T11:15:03.050Z,4.30
2018-02-22T11:17:29.956Z,4.30
2018-02-22T11:19:56.176Z,4.30
2018-02-22T11:22:22.344Z,4.40
2018-02-22T11:24:48.503Z,4.20
2018-02-22T11:27:14.680Z,4.60
2018-02-22T11:29:40.844Z,4.10
2018-02-22T11:32:07.029Z,3.90
2018-02-22T11:34:33.233Z,4.20
2018-02-22T11:36:59.459Z,4.40
2018-02-22T11:39:25.682Z,4.30
2018-02-22T11:41:51.863Z,4.60
2018-02-22T11:44:18.796Z,3.80
2018-02-22T11:46:44.958Z,3.80
2018-02-22T11:49:11.899Z,3.90
2018-02-22T11:51:38.087Z,3.90
2018-02-22T11:54:04.352Z,4.10
2018-02-22T11:56:31.358Z,4.60
2018-02-22T11:58:57.527Z,4.60
2018-02-22T12:01:23.647Z,4.60
2018-02-22T12:03:50.529Z,4.50
2018-02-22T12:06:16.700Z,4.50
2018-02-22T12:08:43.652Z,5.30
2018-02-22T12:11:10.536Z,4.70
2018-02-22T12:13:36.659Z,4.70
2018-02-22T12:16:02.918Z,4.60
2018-02-22T12:18:29.151Z,5.30
2018-02-22T12:20:55.336Z,4.30
2018-02-22T12:23:21.691Z,4.80
2018-02-22T12:25:47.871Z,5.00
2018-02-22T12:28:14.821Z,5.70
2018-02-22T12:30:41.748Z,5.90
2018-02-22T12:33:07.989Z,5.90
2018-02-22T12:35:34.882Z,5.70
2018-02-22T12:38:01.108Z,5.70
2018-02-22T12:40:27.328Z,5.60
2018-02-22T12:42:53.513Z,6.00
2018-02-22T12:45:20.420Z,6.20
2018-02-22T12:47:46.579Z,6.10
2018-02-22T12:50:12.751Z,5.80
2018-02-22T12:52:38.991Z,5.60
2018-02-22T12:55:05.201Z,6.10
2018-02-22T12:57:31.431Z,6.40
2018-02-22T12:59:57.682Z,6.80
2018-02-22T13:02:23.890Z,6.70
2018-02-22T13:04:50.046Z,6.80
2018-02-22T13:07:16.275Z,6.40
2018-02-22T13:09:42.428Z,6.00
2018-02-22T13:12:08.565Z,6.40
2018-02-22T13:14:36.349Z,6.20
2018-02-22T13:17:02.579Z,6.10
2018-02-22T13:19:28.753Z,6.00
2018-02-22T13:21:54.903Z,6.00
2018-02-22T13:24:21.125Z,6.50
2018-02-22T13:26:47.291Z,5.70
2018-02-22T13:29:13.482Z,6.20
2018-02-22T13:31:40.403Z,6.40
2018-02-22T13:34:18.950Z,6.40
2018-02-22T13:36:45.841Z,6.30
2018-02-22T13:39:12.070Z,6.30
2018-02-22T13:41:38.323Z,5.70
2018-02-22T13:44:17.628Z,6.20
2018-02-22T13:46:43.831Z,6.10
2018-02-22T13:49:22.544Z,5.60
2018-02-22T13:51:49.490Z,5.80
2018-02-22T13:54:15.720Z,5.80
2018-02-22T13:56:54.157Z,5.60
2018-02-22T13:59:20.333Z,5.90
2018-02-22T14:01:58.959Z,6.10
2018-02-22T14:04:25.831Z,6.10
2018-02-22T14:06:52.055Z,6.20
2018-02-22T14:09:18.274Z,6.40
2018-02-22T14:11:45.143Z,6.40
2018-02-22T14:14:11.309Z,6.40
2018-02-22T14:16:37.504Z,6.40
2018-02-22T14:19:03.708Z,6.70
2018-02-22T14:21:29.916Z,7.80
2018-02-22T14:23:56.892Z,8.80
2018-02-22T14:26:23.125Z,8.80
2018-02-22T14:28:49.253Z,8.60
2018-02-22T14:31:15.447Z,9.20
2018-02-22T14:33:42.386Z,9.90
2018-02-22T14:36:09.371Z,9.60
2018-02-22T14:38:35.560Z,9.60
2018-02-22T14:41:01.734Z,10.30
2018-02-22T14:43:27.915Z,10.30
2018-02-22T14:45:54.842Z,10.20
2018-02-22T14:48:21.087Z,10.20
2018-02-22T14:50:48.006Z,10.00
2018-02-22T14:53:14.222Z,10.00
2018-02-22T14:55:40.385Z,10.50
2018-02-22T14:58:06.611Z,9.80
2018-02-22T15:00:32.847Z,8.90
2018-02-22T15:02:59.793Z,8.80
2018-02-22T15:05:26.742Z,8.00
2018-02-22T15:07:53.644Z,8.00
2018-02-22T15:10:19.800Z,8.00
2018-02-22T15:12:45.981Z,7.80
2018-02-22T15:15:12.185Z,8.00
2018-02-22T15:17:38.410Z,8.40
2018-02-22T15:20:04.654Z,8.40
2018-02-22T15:22:30.863Z,8.20
2018-02-22T15:24:57.017Z,7.60
2018-02-22T15:27:23.210Z,8.00
2018-02-22T15:29:50.121Z,8.50
2018-02-22T15:32:16.334Z,8.50
2018-02-22T15:34:42.522Z,7.30
2018-02-22T15:37:08.742Z,7.20
2018-02-22T15:39:35.711Z,6.60
2018-02-22T15:42:01.896Z,6.60
2018-02-22T15:44:28.068Z,7.00
2018-02-22T15:46:54.238Z,6.90
2018-02-22T15:49:20.542Z,6.50
2018-02-22T15:51:46.778Z,5.80
2018-02-22T15:54:13.030Z,5.50
2018-02-22T15:56:39.218Z,5.10
2018-02-22T15:59:05.486Z,4.50
2018-02-22T16:01:31.696Z,4.30
2018-02-22T16:03:57.888Z,3.90
2018-02-22T16:06:24.772Z,3.50
2018-02-22T16:08:51.003Z,3.50
2018-02-22T16:11:17.177Z,3.20
2018-02-22T16:13:43.400Z,3.30
2018-02-22T16:16:09.588Z,3.40
2018-02-22T16:18:35.744Z,3.30
2018-02-22T16:21:02.680Z,3.30
2018-02-22T16:23:29.617Z,2.90
2018-02-22T16:25:56.516Z,2.80
2018-02-22T16:28:22.745Z,2.70
2018-02-22T16:30:48.998Z,2.70
2018-02-22T16:33:15.187Z,2.80
2018-02-22T16:35:41.382Z,2.60
2018-02-22T16:38:08.287Z,2.90
2018-02-22T16:40:34.529Z,2.90
2018-02-22T16:43:00.739Z,2.60
2018-02-22T16:45:26.921Z,2.60
2018-02-22T16:47:53.960Z,2.60
2018-02-22T16:50:20.871Z,2.60
2018-02-22T16:52:47.113Z,2.60
2018-02-22T16:55:14.034Z,2.60
2018-02-22T16:57:40.201Z,2.60
2018-02-22T17:00:06.410Z,2.40
2018-02-22T17:02:32.576Z,2.50
2018-02-22T17:04:58.753Z,2.50
2018-02-22T17:07:24.905Z,2.50
2018-02-22T17:09:51.108Z,2.40
2018-02-22T17:12:17.300Z,2.30
2018-02-22T17:14:43.495Z,2.40
2018-02-22T17:17:10.402Z,2.40
2018-02-22T17:19:36.616Z,2.40
2018-02-22T17:22:02.802Z,2.30
2018-02-22T17:24:29.763Z,2.10
2018-02-22T17:27:01.962Z,2.10
2018-02-22T17:29:34.290Z,2.10
2018-02-22T17:32:07.412Z,2.00
2018-02-22T17:34:33.660Z,2.00
2018-02-22T17:37:06.825Z,2.00
2018-02-22T17:42:39.095Z,1.80
2018-02-22T17:45:05.309Z,1.80
2018-02-22T17:47:32.262Z,1.80
2018-02-22T17:49:59.190Z,1.80
2018-02-22T17:52:26.167Z,1.60
2018-02-22T17:54:52.447Z,1.60
2018-02-22T17:57:18.684Z,1.70
2018-02-22T17:59:44.874Z,2.00
2018-02-22T18:02:11.071Z,1.70
2018-02-22T18:04:38.025Z,1.60
2018-02-22T18:07:05.812Z,1.60
2018-02-22T18:09:32.006Z,1.60
2018-02-22T18:11:58.945Z,1.70
2018-02-22T18:14:25.899Z,1.60
2018-02-22T18:16:52.083Z,1.60
2018-02-22T18:19:18.236Z,1.40
2018-02-22T18:21:44.418Z,1.40
2018-02-22T18:24:10.904Z,1.50
2018-02-22T18:26:37.910Z,1.40
2018-02-22T18:29:04.132Z,1.40
2018-02-22T18:31:30.308Z,1.30
2018-02-22T18:33:57.200Z,1.40
2018-02-22T18:36:23.397Z,1.30
2018-02-22T18:38:55.605Z,1.40
2018-02-22T18:41:22.782Z,1.30
2018-02-22T18:43:48.981Z,1.30
2018-02-22T18:46:15.519Z,1.20
2018-02-22T18:48:41.719Z,1.00
2018-02-22T18:51:08.222Z,1.10
2018-02-22T18:53:36.121Z,1.20
2018-02-22T18:56:02.320Z,1.10
2018-02-22T18:58:29.296Z,1.30
2018-02-22T19:00:55.554Z,1.30
2018-02-22T19:03:21.774Z,1.00
2018-02-22T19:05:47.975Z,1.00
2018-02-22T19:08:14.121Z,1.10
2018-02-22T19:10:40.280Z,1.10
2018-02-22T19:13:06.484Z,1.10
2018-02-22T19:15:32.708Z,0.90
2018-02-22T19:17:58.905Z,0.90
2018-02-22T19:20:25.119Z,1.00
2018-02-22T19:22:51.268Z,0.80
2018-02-22T19:25:17.509Z,1.00
2018-02-22T19:27:43.753Z,1.00
2018-02-22T19:30:09.931Z,0.90
2018-02-22T19:32:36.821Z,0.70
2018-02-22T19:35:03.035Z,0.60
2018-02-22T19:37:29.232Z,0.80
2018-02-22T19:39:55.465Z,0.70
2018-02-22T19:42:21.695Z,0.80
2018-02-22T19:44:47.882Z,0.70
2018-02-22T19:47:14.117Z,0.70
2018-02-22T19:49:40.381Z,0.80
2018-02-22T19:52:06.645Z,0.60
2018-02-22T19:54:32.845Z,0.60
2018-02-22T19:56:59.058Z,0.50
2018-02-22T19:59:25.356Z,0.50
2018-02-22T20:01:51.587Z,0.50
2018-02-22T20:04:17.799Z,0.40
2018-02-22T20:06:43.987Z,0.50
2018-02-22T20:09:10.219Z,0.60
2018-02-22T20:11:36.455Z,0.50
2018-02-22T20:14:02.613Z,0.40
2018-02-22T20:16:28.830Z,0.40
2018-02-22T20:18:54.998Z,0.20
2018-02-22T20:21:23.709Z,0.40
2018-02-22T20:23:52.654Z,0.40
2018-02-22T20:26:18.871Z,0.20
2018-02-22T20:28:45.110Z,0.10
2018-02-22T20:31:11.389Z,0.50
2018-02-22T20:33:37.598Z,0.20
2018-02-22T20:36:04.624Z,0.30
2018-02-22T20:38:31.580Z,0.30
2018-02-22T20:40:58.530Z,0.20
2018-02-22T20:43:25.495Z,0.10
2018-02-22T20:45:51.762Z,0.10
2018-02-22T20:48:17.992Z,0.10
2018-02-22T20:50:44.241Z,0.10
2018-02-22T20:53:16.605Z,0.00
2018-02-22T20:55:45.813Z,0.00
2018-02-22T20:58:12.041Z,-0.10
2018-02-22T21:00:38.258Z,-0.10
2018-02-22T21:03:04.525Z,0.10
2018-02-22T21:05:30.782Z,0.00
2018-02-22T21:07:57.000Z,0.00
2018-02-22T21:10:23.200Z,-0.10
2018-02-22T21:12:50.130Z,-0.10
2018-02-22T21:15:16.443Z,-0.20
2018-02-22T21:17:42.608Z,-0.10
2018-02-22T21:20:09.583Z,-0.10
2018-02-22T21:22:35.797Z,-0.10
2018-02-22T21:25:02.794Z,-0.30
2018-02-22T21:27:29.059Z,-0.30
2018-02-22T21:29:55.243Z,-0.10
2018-02-22T21:32:21.467Z,-0.30
2018-02-22T21:34:47.641Z,-0.30
2018-02-22T21:37:14.878Z,-0.30
2018-02-22T21:39:41.789Z,-0.20
2018-02-22T21:42:08.036Z,-0.20
2018-02-22T21:44:34.243Z,-0.20
2018-02-22T21:47:00.443Z,-0.40
2018-02-22T21:49:27.027Z,-0.40
2018-02-22T21:51:53.299Z,-0.50
2018-02-22T21:54:19.496Z,-0.40
2018-02-22T21:56:45.646Z,-0.30
2018-02-22T21:59:12.639Z,-0.40
2018-02-22T22:01:38.779Z,-0.40
2018-02-22T22:04:04.926Z,-0.40
2018-02-22T22:06:31.904Z,-0.30
2018-02-22T22:08:58.064Z,-0.30
2018-02-22T22:11:24.283Z,-0.30
2018-02-22T22:13:50.432Z,-0.50
2018-02-22T22:16:16.569Z,-0.40
2018-02-22T22:18:42.805Z,-0.60
2018-02-22T22:21:09.684Z,-0.50
2018-02-22T22:23:35.839Z,-0.50
2018-02-22T22:26:02.105Z,-0.50
2018-02-22T22:28:29.038Z,-0.60
2018-02-22T22:30:55.219Z,-0.60
2018-02-22T22:33:21.406Z,-0.50
2018-02-22T22:35:48.301Z,-0.50
2018-02-22T22:38:14.544Z,-0.60
2018-02-22T22:40:40.752Z,-0.60
2018-02-22T22:43:06.957Z,-0.60
2018-02-22T22:45:33.137Z,-0.80
2018-02-22T22:47:59.257Z,-0.70
2018-02-22T22:50:25.471Z,-0.80
2018-02-22T22:52:51.659Z,-0.70
2018-02-22T22:55:18.538Z,-0.60
2018-02-22T22:57:44.744Z,-0.60
2018-02-22T23:00:10.952Z,-0.70
2018-02-22T23:02:37.850Z,-0.90
2018-02-22T23:05:04.020Z,-1.00
2018-02-22T23:07:30.898Z,-1.10
2018-02-22T23:09:57.190Z,-1.10
2018-02-22T23:12:24.166Z,-0.90
2018-02-22T23:14:50.396Z,-0.90
2018-02-22T23:17:16.574Z,-0.90
2018-02-22T23:19:42.771Z,-1.10
2018-02-22T23:22:08.924Z,-1.00
2018-02-22T23:24:35.115Z,-1.10
2018-02-22T23:27:01.379Z,-1.00
2018-02-22T23:29:27.510Z,-1.00
2018-02-22T23:31:53.672Z,-1.20
2018-02-22T23:34:20.590Z,-1.20
2018-02-22T23:36:46.740Z,-1.20
2018-02-22T23:39:13.042Z,-1.20
2018-02-22T23:41:55.120Z,-1.10
2018-02-22T23:44:21.383Z,-1.20
2018-02-22T23:46:48.351Z,-1.30
2018-02-22T23:49:14.565Z,-1.30
2018-02-22T23:51:41.499Z,-1.20
2018-02-22T23:54:08.462Z,-1.10
2018-02-22T23:56:35.361Z,-1.30
2018-02-22T23:59:01.582Z,-1.30
